Flight Track Log - Related Links

Times and Time Zones

All times are in EDT time to prevent confusion due to time zone crossing. See the N683DA flight status page for this flight to view local times or setup timezone preferences in your user account.

Time Position Orientation Groundspeed Altitude Reporting Facility
EDT Latitude Longitude Course Direction KTS MPH feet Rate Location/Type
Sun 11:18:10 AM 39.8667 -104.5833 108° East 177 204 7,000  Level Denver TRACON
Sun 11:19:10 AM 39.8500 -104.5167 101° East 255 293 8,700 1,550 Climbing Denver TRACON
Sun 11:20:10 AM 39.8333 -104.4000 103° East 307 353 10,100 1,538 Climbing Denver TRACON
Sun 11:21:07 AM 39.8147 -104.2958 100° East 328 377 11,700 2,150 Climbing Denver Center
Sun 11:22:10 AM 39.7967 -104.1625 100° East 344 396 14,400 2,256 Climbing Denver Center
Sun 11:23:12 AM 39.7783 -104.0275 99° East 375 432 16,400 2,112 Climbing Denver Center
Sun 11:24:15 AM 39.7589 -103.8683 100° East 407 468 18,800 2,304 Climbing Denver Center
Sun 11:25:17 AM 39.7389 -103.7144 96° East 411 473 21,200 2,112 Climbing Denver Center
Sun 11:26:20 AM 39.7269 -103.5622 96° East 421 484 23,200 1,728 Climbing Denver Center
Sun 11:27:22 AM 39.7139 -103.4008 96° East 438 504 24,800 1,680 Climbing Denver Center
Sun 11:28:25 AM 39.6997 -103.2361 103° East 449 517 26,700 1,762 Climbing Denver Center
Sun 11:29:28 AM 39.6658 -103.0489 107° East 452 520 28,500 1,440 Climbing Denver Center
Sun 11:30:30 AM 39.6283 -102.8872 114° Southeast 463 533 29,700 1,104 Climbing Denver Center
Sun 11:31:33 AM 39.5733 -102.7275 113° Southeast 477 549 30,800 1,008 Climbing Denver Center
Sun 11:32:35 AM 39.5194 -102.5658 114° Southeast 484 557 31,800 1,344 Climbing Denver Center
Sun 11:33:38 AM 39.4647 -102.4036 114° Southeast 486 559 33,600 1,632 Climbing Denver Center
Sun 11:34:40 AM 39.4042 -102.2242 114° Southeast 479 551 35,200 1,344 Climbing Denver Center
Sun 11:35:43 AM 39.3525 -102.0767 114° Southeast 474 545 36,400 864 Climbing Denver Center
Sun 11:36:45 AM 39.2933 -101.9069 114° Southeast 470 541 37,000 288 Climbing Denver Center
Sun 11:37:48 AM 39.2419 -101.7592 114° Southeast 471 542 37,000  Level Denver Center
Sun 11:38:51 AM 39.1822 -101.5836 114° Southeast 475 547 37,000  Level Denver Center
Sun 11:39:53 AM 39.1289 -101.4319 114° Southeast 482 555 37,000  Level Denver Center
Sun 11:40:56 AM 39.0678 -101.2567 114° Southeast 482 555 37,000  Level Denver Center
Sun 11:41:58 AM 39.0153 -101.1075 115° Southeast 479 551 37,000  Level Denver Center
Sun 11:43:01 AM 38.9542 -100.9356 115° Southeast 475 547 37,000  Level Denver Center
Sun 11:44:03 AM 38.9008 -100.7861 114° Southeast 478 550 37,000  Level Denver Center
Sun 11:45:06 AM 38.8406 -100.6139 115° Southeast 475 547 37,000  Level Denver Center
Sun 11:46:08 AM 38.7872 -100.4656 115° Southeast 476 548 37,000  Level Denver Center
Sun 11:47:11 AM 38.7244 -100.2928 115° Southeast 478 550 37,000  Level Denver Center
Sun 11:48:14 AM 38.6722 -100.1478 115° Southeast 472 543 37,000  Level Denver Center
Sun 11:49:16 AM 38.6103 -99.9794 114° Southeast 468 539 37,000  Level Denver Center
Sun 11:50:23 AM 38.5486 -99.8025 115° Southeast 479 551 37,000  Level Kansas Center
Sun 11:51:23 AM 38.4983 -99.6664 116° Southeast 479 551 37,000  Level Kansas Center
Sun 11:52:23 AM 38.4344 -99.5000 117° Southeast 479 551 37,000  Level Kansas Center
Sun 11:53:23 AM 38.3814 -99.3694 114° Southeast 474 545 37,000  Level Kansas Center
Sun 11:54:23 AM 38.3272 -99.2175 115° Southeast 474 545 37,000  Level Kansas Center
Sun 11:55:23 AM 38.2725 -99.0686 116° Southeast 474 545 37,000  Level Kansas Center
Sun 11:56:23 AM 38.2156 -98.9172 117° Southeast 469 540 37,000  Level Kansas Center
Sun 11:57:23 AM 38.1561 -98.7711 116° Southeast 469 540 37,000  Level Kansas Center
Sun 11:58:23 AM 38.0989 -98.6200 116° Southeast 469 540 37,000  Level Kansas Center
Sun 11:59:23 AM 38.0433 -98.4744 116° Southeast 469 540 37,000  Level Kansas Center
Sun 12:00:23 PM 37.9856 -98.3264 116° Southeast 464 534 37,000  Level Kansas Center
Sun 12:01:23 PM 37.9297 -98.1814 116° Southeast 464 534 37,000  Level Kansas Center
Sun 12:02:23 PM 37.8658 -98.0153 117° Southeast 473 544 37,000  Level Kansas Center
Sun 12:03:23 PM 37.8094 -97.8733 117° Southeast 468 539 37,000  Level Kansas Center
Sun 12:04:23 PM 37.7508 -97.7261 116° Southeast 463 533 37,000  Level Kansas Center
Sun 12:05:23 PM 37.6922 -97.5767 117° Southeast 466 536 37,000  Level Kansas Center
Sun 12:06:23 PM 37.6314 -97.4272 117° Southeast 466 536 37,000  Level Kansas Center
Sun 12:07:23 PM 37.5742 -97.2836 117° Southeast 471 542 37,000  Level Kansas Center
Sun 12:08:23 PM 37.5131 -97.1347 116° Southeast 471 542 37,000  Level Kansas Center
Sun 12:09:23 PM 37.4556 -96.9861 118° Southeast 471 542 37,000  Level Kansas Center
Sun 12:10:23 PM 37.3958 -96.8458 117° Southeast 471 542 37,000  Level Kansas Center
Sun 12:11:23 PM 37.3361 -96.6975 117° Southeast 466 536 37,000  Level Kansas Center
Sun 12:12:23 PM 37.2761 -96.5522 116° Southeast 466 536 37,000  Level Kansas Center
Sun 12:13:23 PM 37.2222 -96.4128 117° Southeast 460 529 37,000  Level Kansas Center
Sun 12:14:23 PM 37.1639 -96.2706 117° Southeast 460 529 37,000  Level Kansas Center
Sun 12:15:23 PM 37.1053 -96.1258 117° Southeast 460 529 37,000  Level Kansas Center
Sun 12:16:23 PM 37.0467 -95.9842 118° Southeast 460 529 37,000  Level Kansas Center
Sun 12:17:23 PM 36.9858 -95.8400 118° Southeast 460 529 37,000  Level Kansas Center
Sun 12:18:23 PM 36.9247 -95.6961 117° Southeast 460 529 37,000  Level Kansas Center
Sun 12:19:23 PM 36.8656 -95.5497 118° Southeast 460 529 37,000  Level Kansas Center
Sun 12:20:23 PM 36.8042 -95.4061 117° Southeast 460 529 37,000  Level Kansas Center
Sun 12:21:23 PM 36.7569 -95.2889 119° Southeast 460 529 37,000  Level Kansas Center
Sun 12:23:34 PM 36.6156 -94.9661 118° Southeast 458 527 37,000  Level Memphis Center
Sun 12:24:34 PM 36.5558 -94.8258 119° Southeast 458 527 37,000  Level Memphis Center
Sun 12:25:34 PM 36.4922 -94.6856 117° Southeast 463 533 37,000  Level Memphis Center
Sun 12:26:37 PM 36.4344 -94.5433 120° Southeast 463 533 37,000  Level Memphis Center
Sun 12:27:34 PM 36.3703 -94.4058 117° Southeast 463 533 37,000  Level Memphis Center
Sun 12:28:34 PM 36.3122 -94.2667 118° Southeast 468 539 37,000  Level Memphis Center
Sun 12:29:34 PM 36.2517 -94.1272 110° East 462 532 37,000  Level Memphis Center
Sun 12:30:34 PM 36.2061 -93.9761 109° East 462 532 37,000  Level Memphis Center
Sun 12:31:34 PM 36.1608 -93.8147 110° East 462 532 37,000  Level Memphis Center
Sun 12:32:34 PM 36.1189 -93.6689 109° East 457 526 37,000  Level Memphis Center
Sun 12:33:34 PM 36.0769 -93.5158 108° East 457 526 37,000  Level Memphis Center
Sun 12:34:34 PM 36.0369 -93.3681 109° East 452 520 37,000  Level Memphis Center
Sun 12:35:34 PM 35.9944 -93.2200 110° East 452 520 37,000  Level Memphis Center
Sun 12:36:34 PM 35.9519 -93.0725 110° East 452 520 37,000  Level Memphis Center
Sun 12:37:34 PM 35.9092 -92.9275 109° East 447 514 37,000  Level Memphis Center
Sun 12:38:34 PM 35.8683 -92.7803 110° East 447 514 37,000  Level Memphis Center
Sun 12:39:34 PM 35.8292 -92.6486 110° East 452 520 37,000  Level Memphis Center
Sun 12:40:34 PM 35.7858 -92.5014 110° East 452 520 37,000  Level Memphis Center
Sun 12:41:34 PM 35.7422 -92.3547 110° East 452 520 37,000  Level Memphis Center
Sun 12:42:34 PM 35.6986 -92.2053 110° East 452 520 37,000  Level Memphis Center
Sun 12:43:34 PM 35.6550 -92.0611 109° East 452 520 37,000  Level Memphis Center
Sun 12:44:34 PM 35.6131 -91.9122 110° East 452 520 37,000  Level Memphis Center
Sun 12:45:34 PM 35.5689 -91.7658 111° Southeast 452 520 37,000  Level Memphis Center
Sun 12:46:34 PM 35.5225 -91.6197 110° East 452 520 37,000  Level Memphis Center
Sun 12:47:34 PM 35.4781 -91.4739 110° East 452 520 37,000  Level Memphis Center
Sun 12:48:34 PM 35.4356 -91.3281 111° Southeast 452 520 37,000  Level Memphis Center
Sun 12:49:34 PM 35.3886 -91.1744 111° Southeast 457 526 37,000  Level Memphis Center
Sun 12:50:34 PM 35.3456 -91.0342 111° Southeast 449 517 37,000  Level Memphis Center
Sun 12:51:34 PM 35.3003 -90.8861 111° Southeast 454 522 37,000  Level Memphis Center
Sun 12:52:34 PM 35.2531 -90.7358 110° East 460 529 37,000  Level Memphis Center
Sun 12:53:34 PM 35.2094 -90.5883 111° Southeast 460 529 37,000  Level Memphis Center
Sun 12:54:34 PM 35.1575 -90.4256 111° Southeast 465 535 37,000  Level Memphis Center
Sun 12:55:34 PM 35.1094 -90.2758 111° Southeast 470 541 37,000  Level Memphis Center
Sun 12:56:34 PM 35.0633 -90.1289 109° East 470 541 37,000  Level Memphis Center
Sun 12:57:34 PM 35.0214 -89.9817 99° East 470 541 37,000  Level Memphis Center
Sun 12:58:34 PM 35.0000 -89.8222 100° East 470 541 37,000  Level Memphis Center
Sun 12:59:34 PM 34.9783 -89.6703 102° East 489 563 37,000  Level Memphis Center
Sun 01:00:34 PM 34.9503 -89.5083 101° East 489 563 37,000  Level Memphis Center
Sun 01:01:34 PM 34.9239 -89.3492 101° East 484 557 37,000  Level Memphis Center
Sun 01:02:34 PM 34.8997 -89.1922 101° East 484 557 37,000  Level Memphis Center
Sun 01:03:34 PM 34.8731 -89.0308 100° East 484 557 37,000  Level Memphis Center
Sun 01:04:34 PM 34.8481 -88.8592 101° East 484 557 37,000  Level Memphis Center
Sun 01:05:34 PM 34.8231 -88.6975 101° East 484 557 37,000 -50 Level Memphis Center
Sun 01:06:34 PM 34.7978 -88.5414 101° East 484 557 36,900 -450 Descending Memphis Center
Sun 01:07:34 PM 34.7750 -88.4053 100° East 477 549 36,100 -942 Descending Memphis Center
Sun 01:08:35 PM 34.7492 -88.2314 100° East 470 541 35,000 -1,150 Descending Memphis Center
Sun 01:09:34 PM 34.7231 -88.0603 101° East 490 564 33,800 -1,008 Descending Memphis Center
Sun 01:10:34 PM 34.6969 -87.8969 102° East 496 571 33,000 -400 Descending Memphis Center
Sun 01:11:34 PM 34.6686 -87.7336 101° East 491 565 33,000 -450 Level Memphis Center
Sun 01:12:34 PM 34.6447 -87.5878 102° East 491 565 32,100 -682 Descending Memphis Center
Sun 01:14:30 PM 34.5872 -87.2533 103° East 493 567 31,000 -375 Descending Atlanta Center
Sun 01:15:30 PM 34.5558 -87.0906 104° East 493 567 31,000  Level Atlanta Center
Sun 01:16:29 PM 34.5258 -86.9433 103° East 493 567 31,000 -50 Level Atlanta Center
Sun 01:17:30 PM 34.4944 -86.7758 106° East 493 567 30,900 -550 Descending Atlanta Center
Sun 01:18:29 PM 34.4561 -86.6108 105° East 493 567 29,900 -1,100 Descending Atlanta Center
Sun 01:19:30 PM 34.4197 -86.4486 105° East 498 573 28,700 -1,250 Descending Atlanta Center
Sun 01:20:29 PM 34.3853 -86.2917 106° East 492 566 27,400 -1,500 Descending Atlanta Center
Sun 01:21:30 PM 34.3483 -86.1347 105° East 487 560 25,700 -1,438 Descending Atlanta Center
Sun 01:22:30 PM 34.3114 -85.9678 107° East 472 543 24,500 -1,210 Descending Atlanta Center
Sun 01:23:29 PM 34.2739 -85.8211 104° East 467 537 23,300 -1,400 Descending Atlanta Center
Sun 01:24:30 PM 34.2486 -85.6950 106° East 440 506 21,700 -1,983 Descending Atlanta Center
Sun 01:25:30 PM 34.2108 -85.5408 106° East 435 501 19,300 -2,370 Descending Atlanta Center
Sun 01:26:29 PM 34.1792 -85.4072 105° East 429 494 17,000 -2,319 Descending Atlanta Center
Sun 01:27:29 PM 34.1492 -85.2764 106° East 411 473 14,700 -2,000 Descending Atlanta Center
Sun 01:28:29 PM 34.1189 -85.1528 105° East 400 460 13,000 -850 Descending Atlanta Center
Sun 01:29:29 PM 34.0950 -85.0447 128° Southeast 365 420 13,000 -149 Level Atlanta Center
Sun 01:30:30 PM 34.0433 -84.9639 141° Southeast 311 358 12,700 -900 Descending Atlanta Center
Sun 01:31:29 PM 33.9792 -84.9006 184° South 298 343 11,200 -1,462 Descending Atlanta Center
Sun 01:32:29 PM 33.9039 -84.9072 186° South 266 306 9,800 -1,100 Descending Atlanta Center
Sun 01:33:29 PM 33.8286 -84.9164 187° South 266 306 9,000 -600 Descending Atlanta Center
Sun 01:34:29 PM 33.7597 -84.9258 175° South 262 302 8,600 -850 Descending Atlanta Center
Sun 01:35:29 PM 33.7033 -84.9203 151° Southeast 227 261 7,300 -800 Descending Atlanta Center
Sun 01:36:29 PM 33.6472 -84.8822 105° East 217 250 7,000 -250 Descending Atlanta Center
Sun 01:37:29 PM 33.6311 -84.8097 89° East 209 241 6,800 -809 Descending Atlanta Center
Sun 01:38:50 PM 33.6333 -84.7000 90° East 207 238 5,100 -1,149 Descending Atlanta TRACON
Sun 01:39:50 PM 33.6333 -84.6500 90° East 190 219 4,100 -950 Descending Atlanta TRACON
Sun 01:40:50 PM 33.6333 -84.5833 90° East 178 205 3,200 -905 Descending Atlanta TRACON
Sun 01:41:56 PM 33.6333 -84.5333 90° East 150 173 2,200 -793 Descending Atlanta TRACON
Sun 01:42:51 PM 33.6333 -84.4833 90° East 127 146 1,600 -655 Descending Atlanta TRACON
Sun 01:49:52 PM 33.6333 -84.4167 290° West  Level FlightAware
Sun 01:50:52 PM 33.6744 -84.5552 290° West  Level Estimated

Login

Don't have an account? Register now (free) for customized features, flight alerts, and more!